Terminal Aerodrome Forecast
Issued by NWS Cleveland, OH

Home | Current Version | Previous Version | Graphics & Text | Print | Product List | Glossary On
Versions: 1 2 3 4 5 6 7 8 9 10 11 12 13 14
071
FTUS41 KCLE 271737
TAFTOL
TAF
KTOL 271737Z 2718/2818 07012G20KT P6SM BKN250
     FM280200 05012G20KT P6SM OVC050
     FM281000 06012G20KT P6SM VCSH SCT015 OVC025
     FM281500 06012KT 5SM -RA BR OVC015=

USA.gov is the U.S. government's official web portal to all federal, state and local government web resources and services.